createdAt,value
2023-05-04T00:00:29.161Z,99.90
2023-05-04T00:02:56.351Z,99.90
2023-05-04T00:05:23.376Z,99.90
2023-05-04T00:07:50.266Z,99.90
2023-05-04T00:10:17.355Z,99.90
2023-05-04T00:12:46.362Z,99.90
2023-05-04T00:15:13.515Z,99.90
2023-05-04T00:17:40.444Z,99.90
2023-05-04T00:20:08.001Z,99.90
2023-05-04T00:22:34.953Z,99.90
2023-05-04T00:25:01.939Z,99.90
2023-05-04T00:27:28.881Z,99.90
2023-05-04T00:29:56.412Z,99.90
2023-05-04T00:32:23.474Z,99.90
2023-05-04T00:34:50.446Z,99.90
2023-05-04T00:37:17.378Z,99.90
2023-05-04T00:39:44.332Z,99.90
2023-05-04T00:42:11.423Z,99.90
2023-05-04T00:44:41.530Z,99.90
2023-05-04T00:47:09.594Z,99.90
2023-05-04T00:49:36.830Z,99.90
2023-05-04T00:52:04.300Z,99.90
2023-05-04T00:54:32.030Z,99.90
2023-05-04T00:56:59.267Z,99.90
2023-05-04T00:59:26.212Z,99.90
2023-05-04T01:01:53.434Z,99.90
2023-05-04T01:04:20.880Z,99.90
2023-05-04T01:06:47.861Z,99.90
2023-05-04T01:09:17.972Z,99.90
2023-05-04T01:11:53.259Z,99.90
2023-05-04T01:14:22.166Z,99.90
2023-05-04T01:16:50.449Z,99.90
2023-05-04T01:19:17.366Z,99.90
2023-05-04T01:21:44.619Z,99.90
2023-05-04T01:24:12.052Z,99.90
2023-05-04T01:26:42.078Z,99.90
2023-05-04T01:29:32.379Z,99.90
2023-05-04T01:32:02.473Z,99.90
2023-05-04T01:34:29.704Z,99.90
2023-05-04T01:36:57.299Z,99.90
2023-05-04T01:39:24.626Z,99.90
2023-05-04T01:41:51.636Z,99.90
2023-05-04T01:44:18.623Z,99.90
2023-05-04T01:46:46.017Z,99.90
2023-05-04T01:49:13.070Z,99.90
2023-05-04T01:51:40.070Z,99.90
2023-05-04T01:54:07.282Z,99.90
2023-05-04T01:56:34.326Z,99.90
2023-05-04T01:59:01.518Z,99.90
2023-05-04T02:01:28.687Z,99.90
2023-05-04T02:03:56.064Z,99.90
2023-05-04T02:06:23.238Z,99.90
2023-05-04T02:08:51.089Z,99.90
2023-05-04T02:11:18.042Z,99.90
2023-05-04T02:13:45.013Z,99.90
2023-05-04T02:16:11.994Z,99.90
2023-05-04T02:18:38.991Z,99.90
2023-05-04T02:21:06.112Z,99.90
2023-05-04T02:23:33.133Z,99.90
2023-05-04T02:26:00.329Z,99.90
2023-05-04T02:28:27.755Z,99.90
2023-05-04T02:30:54.945Z,99.90
2023-05-04T02:33:22.138Z,99.90
2023-05-04T02:35:49.325Z,99.90
2023-05-04T02:38:16.559Z,99.90
2023-05-04T02:40:43.574Z,99.90
2023-05-04T02:43:10.527Z,99.90
2023-05-04T02:45:37.605Z,99.90
2023-05-04T02:48:04.778Z,99.90
2023-05-04T02:50:32.096Z,99.90
2023-05-04T02:52:59.093Z,99.90
2023-05-04T02:55:26.578Z,99.90
2023-05-04T02:57:53.761Z,99.90
2023-05-04T03:00:21.035Z,99.90
2023-05-04T03:02:48.028Z,99.90
2023-05-04T03:05:14.996Z,99.90
2023-05-04T03:07:41.946Z,99.90
2023-05-04T03:10:09.807Z,99.90
2023-05-04T03:12:36.859Z,99.90
2023-05-04T03:15:04.320Z,99.90
2023-05-04T03:17:31.360Z,99.90
2023-05-04T03:19:58.357Z,99.90
2023-05-04T03:22:25.322Z,99.90
2023-05-04T03:24:52.312Z,99.90
2023-05-04T03:27:19.244Z,99.90
2023-05-04T03:29:46.159Z,99.90
2023-05-04T03:32:13.470Z,99.90
2023-05-04T03:34:40.499Z,99.90
2023-05-04T03:37:08.150Z,99.90
2023-05-04T03:39:35.079Z,99.90
2023-05-04T03:42:02.686Z,99.90
2023-05-04T03:44:29.674Z,99.90
2023-05-04T03:46:56.690Z,99.90
2023-05-04T03:49:23.621Z,99.90
2023-05-04T03:51:50.595Z,99.90
2023-05-04T03:54:17.528Z,99.90
2023-05-04T03:56:44.456Z,99.90
2023-05-04T03:59:11.492Z,99.90
2023-05-04T04:01:38.586Z,99.90
2023-05-04T04:04:05.899Z,99.90
2023-05-04T04:09:07.774Z,99.90
2023-05-04T04:11:35.203Z,99.90
2023-05-04T04:14:02.234Z,99.90
2023-05-04T04:16:29.171Z,99.90
2023-05-04T04:18:56.239Z,99.90
2023-05-04T04:21:23.178Z,99.90
2023-05-04T04:23:50.127Z,99.90
2023-05-04T04:26:17.068Z,99.90
2023-05-04T04:28:44.976Z,99.90
2023-05-04T04:31:11.954Z,99.90
2023-05-04T04:33:38.865Z,99.90
2023-05-04T04:36:05.975Z,99.90
2023-05-04T04:38:32.990Z,99.90
2023-05-04T04:40:59.990Z,99.90
2023-05-04T04:43:27.003Z,99.90
2023-05-04T04:45:54.086Z,99.90
2023-05-04T04:48:22.293Z,99.90
2023-05-04T04:50:49.357Z,99.90
2023-05-04T04:53:16.268Z,99.90
2023-05-04T04:55:43.291Z,99.90
2023-05-04T04:58:10.219Z,99.90
2023-05-04T05:00:37.530Z,99.90
2023-05-04T05:03:04.986Z,99.90
2023-05-04T05:05:32.058Z,99.90
2023-05-04T05:07:58.993Z,99.90
2023-05-04T05:10:25.924Z,99.90
2023-05-04T05:12:52.848Z,99.90
2023-05-04T05:15:19.898Z,99.90
2023-05-04T05:17:46.903Z,99.90
2023-05-04T05:20:15.388Z,96.90
2023-05-04T05:22:43.092Z,93.30
2023-05-04T05:25:12.403Z,92.70
2023-05-04T05:27:39.313Z,92.40
2023-05-04T05:30:07.265Z,92.90
2023-05-04T05:32:34.650Z,92.80
2023-05-04T05:35:05.434Z,93.40
2023-05-04T05:37:33.555Z,94.20
2023-05-04T05:40:00.560Z,94.90
2023-05-04T05:42:30.430Z,94.50
2023-05-04T05:44:57.336Z,95.50
2023-05-04T05:47:24.337Z,97.30
2023-05-04T05:49:51.388Z,96.70
2023-05-04T05:52:20.618Z,96.40
2023-05-04T05:54:47.617Z,97.30
2023-05-04T05:57:16.624Z,97.50
2023-05-04T06:02:51.923Z,97.40
2023-05-04T06:05:18.946Z,98.10
2023-05-04T06:07:45.856Z,97.90
2023-05-04T06:10:12.893Z,97.70
2023-05-04T06:12:39.942Z,98.10
2023-05-04T06:15:08.358Z,97.90
2023-05-04T06:17:35.559Z,98.30
2023-05-04T06:20:02.700Z,98.40
2023-05-04T06:22:29.852Z,99.00
2023-05-04T06:25:02.881Z,97.10
2023-05-04T06:27:33.242Z,97.20
2023-05-04T06:30:00.407Z,96.20
2023-05-04T06:32:27.469Z,96.10
2023-05-04T06:34:55.724Z,97.00
2023-05-04T06:37:23.417Z,96.80
2023-05-04T06:39:50.664Z,97.30
2023-05-04T06:42:17.735Z,98.10
2023-05-04T06:44:53.992Z,99.10
2023-05-04T06:47:20.990Z,99.00
2023-05-04T06:49:48.155Z,99.90
2023-05-04T06:52:15.124Z,99.90
2023-05-04T06:54:42.183Z,99.90
2023-05-04T06:57:09.247Z,99.90
2023-05-04T06:59:36.344Z,99.90
2023-05-04T07:02:03.287Z,99.90
2023-05-04T07:04:30.202Z,98.70
2023-05-04T07:06:57.113Z,98.20
2023-05-04T07:09:24.060Z,97.40
2023-05-04T07:11:51.108Z,97.80
2023-05-04T07:14:18.050Z,98.60
2023-05-04T07:16:45.169Z,98.70
2023-05-04T07:19:12.138Z,97.90
2023-05-04T07:21:39.140Z,97.40
2023-05-04T07:24:08.148Z,96.70
2023-05-04T07:26:35.147Z,98.10
2023-05-04T07:29:02.139Z,97.10
2023-05-04T07:31:30.545Z,96.90
2023-05-04T07:33:57.827Z,94.80
2023-05-04T07:36:26.745Z,95.50
2023-05-04T07:38:54.535Z,93.00
2023-05-04T07:41:21.579Z,91.10
2023-05-04T07:43:48.568Z,88.60
2023-05-04T07:46:16.546Z,89.80
2023-05-04T07:48:43.585Z,91.80
2023-05-04T07:51:14.874Z,90.40
2023-05-04T07:53:43.381Z,90.20
2023-05-04T07:56:12.533Z,90.60
2023-05-04T07:58:39.758Z,91.70
2023-05-04T08:01:06.726Z,93.30
2023-05-04T08:03:33.877Z,91.20
2023-05-04T08:06:00.923Z,89.50
2023-05-04T08:08:28.087Z,90.60
2023-05-04T08:10:59.793Z,85.70
2023-05-04T08:13:32.073Z,86.70
2023-05-04T08:16:01.430Z,85.00
2023-05-04T08:18:28.635Z,88.50
2023-05-04T08:20:55.552Z,90.10
2023-05-04T08:23:22.767Z,91.70
2023-05-04T08:25:49.739Z,88.60
2023-05-04T08:28:16.739Z,86.30
2023-05-04T08:30:43.706Z,90.80
2023-05-04T08:33:10.807Z,86.20
2023-05-04T08:35:38.045Z,88.60
2023-05-04T08:38:05.005Z,86.90
2023-05-04T08:40:33.163Z,87.20
2023-05-04T08:43:00.157Z,88.00
2023-05-04T08:45:28.748Z,90.10
2023-05-04T08:47:55.804Z,85.40
2023-05-04T08:50:22.884Z,83.80
2023-05-04T08:52:50.600Z,82.00
2023-05-04T08:55:18.037Z,84.90
2023-05-04T08:57:45.229Z,85.90
2023-05-04T09:00:15.509Z,89.40
2023-05-04T09:02:43.869Z,87.30
2023-05-04T09:05:12.118Z,83.20
2023-05-04T09:07:39.091Z,84.30
2023-05-04T09:10:07.623Z,83.00
2023-05-04T09:12:34.767Z,84.80
2023-05-04T09:15:06.055Z,85.40
2023-05-04T09:17:33.643Z,82.60
2023-05-04T09:20:05.016Z,81.00
2023-05-04T09:22:32.030Z,73.40
2023-05-04T09:25:13.334Z,77.50
2023-05-04T09:27:42.842Z,81.80
2023-05-04T09:30:12.691Z,80.70
2023-05-04T09:32:46.879Z,71.80
2023-05-04T09:35:29.250Z,76.10
2023-05-04T09:37:59.473Z,80.40
2023-05-04T09:40:41.378Z,73.50
2023-05-04T09:43:09.556Z,77.30
2023-05-04T09:45:44.351Z,75.70
2023-05-04T09:48:22.078Z,73.50
2023-05-04T09:50:53.831Z,73.80
2023-05-04T09:53:26.151Z,76.30
2023-05-04T09:56:11.456Z,78.60
2023-05-04T09:58:39.184Z,77.30
2023-05-04T10:01:06.558Z,76.00
2023-05-04T10:03:33.786Z,75.90
2023-05-04T10:06:03.291Z,76.50
2023-05-04T10:08:31.480Z,77.20
2023-05-04T10:10:58.751Z,79.10
2023-05-04T10:13:26.276Z,78.30
2023-05-04T10:16:24.649Z,67.40
2023-05-04T10:19:19.416Z,70.60
2023-05-04T10:21:57.289Z,73.70
2023-05-04T10:24:30.655Z,71.50
2023-05-04T10:27:15.180Z,76.00
2023-05-04T10:29:42.952Z,75.20
2023-05-04T10:32:22.862Z,69.00
2023-05-04T10:34:50.059Z,66.40
2023-05-04T10:37:19.040Z,62.00
2023-05-04T10:39:55.353Z,65.30
2023-05-04T10:42:22.662Z,67.50
2023-05-04T10:44:55.324Z,61.40
2023-05-04T10:47:32.668Z,62.30
2023-05-04T10:50:08.503Z,57.50
2023-05-04T10:52:52.134Z,58.90
2023-05-04T10:55:20.618Z,56.90
2023-05-04T10:57:54.154Z,61.00
2023-05-04T11:00:22.032Z,65.90
2023-05-04T11:02:50.462Z,60.00
2023-05-04T11:05:20.528Z,59.10
2023-05-04T11:07:53.569Z,63.00
2023-05-04T11:10:26.105Z,62.40
2023-05-04T11:12:55.873Z,61.10
2023-05-04T11:15:23.029Z,59.80
2023-05-04T11:17:52.177Z,60.60
2023-05-04T11:20:24.249Z,64.10
2023-05-04T11:22:52.008Z,61.60
2023-05-04T11:25:27.564Z,58.70
2023-05-04T11:27:54.610Z,60.10
2023-05-04T11:30:22.330Z,62.50
2023-05-04T11:32:54.138Z,62.80
2023-05-04T11:35:25.043Z,66.70
2023-05-04T11:37:52.251Z,68.30
2023-05-04T11:40:22.011Z,62.90
2023-05-04T11:42:52.843Z,64.30
2023-05-04T11:45:23.784Z,64.40
2023-05-04T11:47:52.455Z,65.90
2023-05-04T11:50:21.249Z,63.20
2023-05-04T11:52:49.538Z,66.20
2023-05-04T11:55:33.592Z,67.50
2023-05-04T11:58:05.124Z,63.00
2023-05-04T12:00:37.524Z,56.40
2023-05-04T12:03:06.242Z,60.20
2023-05-04T12:05:34.920Z,60.50
2023-05-04T12:08:03.482Z,62.70
2023-05-04T12:10:35.039Z,58.20
2023-05-04T12:13:16.499Z,61.50
2023-05-04T12:15:44.147Z,64.60
2023-05-04T12:18:29.692Z,64.60
2023-05-04T12:20:56.798Z,61.80
2023-05-04T12:23:23.696Z,59.90
2023-05-04T12:25:58.271Z,60.10
2023-05-04T12:28:27.011Z,58.60
2023-05-04T12:31:06.666Z,56.40
2023-05-04T12:33:34.712Z,57.40
2023-05-04T12:36:03.284Z,58.90
2023-05-04T12:38:30.237Z,60.40
2023-05-04T12:40:59.122Z,59.80
2023-05-04T12:43:27.048Z,59.10
2023-05-04T12:45:54.765Z,58.70
2023-05-04T12:48:21.830Z,57.60
2023-05-04T12:50:50.840Z,59.20
2023-05-04T12:53:18.980Z,59.80
2023-05-04T12:55:46.081Z,57.30
2023-05-04T12:58:13.101Z,56.80
2023-05-04T13:00:40.409Z,57.80
2023-05-04T13:03:07.921Z,59.10
2023-05-04T13:05:35.053Z,60.00
2023-05-04T13:08:02.045Z,60.10
2023-05-04T13:10:29.044Z,58.30
2023-05-04T13:12:56.190Z,57.10
2023-05-04T13:15:23.771Z,59.10
2023-05-04T13:17:50.949Z,57.20
2023-05-04T13:20:17.936Z,56.10
2023-05-04T13:22:47.274Z,55.60
2023-05-04T13:25:14.539Z,58.50
2023-05-04T13:27:41.763Z,60.60
2023-05-04T13:30:19.737Z,58.80
2023-05-04T13:32:47.140Z,57.20
2023-05-04T13:35:14.110Z,56.50
2023-05-04T13:37:41.592Z,57.10
2023-05-04T13:40:09.642Z,57.90
2023-05-04T13:42:37.358Z,58.00
2023-05-04T13:45:05.682Z,58.00
2023-05-04T13:47:34.760Z,57.40
2023-05-04T13:50:02.161Z,57.70
2023-05-04T13:52:29.144Z,58.20
2023-05-04T13:54:59.394Z,57.30
2023-05-04T13:57:27.984Z,56.00
2023-05-04T14:00:06.678Z,56.00
2023-05-04T14:02:35.247Z,55.00
2023-05-04T14:05:04.146Z,55.80
2023-05-04T14:07:31.557Z,56.00
2023-05-04T14:09:59.562Z,54.70
2023-05-04T14:12:27.632Z,55.30
2023-05-04T14:14:54.720Z,55.90
2023-05-04T14:17:21.811Z,56.60
2023-05-04T14:19:48.814Z,57.10
2023-05-04T14:22:15.771Z,55.70
2023-05-04T14:24:42.816Z,56.20
2023-05-04T14:27:09.795Z,56.30
2023-05-04T14:29:36.805Z,57.50
2023-05-04T14:32:03.800Z,56.50
2023-05-04T14:34:30.827Z,57.60
2023-05-04T14:36:57.812Z,57.20
2023-05-04T14:39:25.082Z,57.80
2023-05-04T14:41:53.222Z,55.80
2023-05-04T14:44:22.694Z,56.60
2023-05-04T14:46:49.764Z,58.10
2023-05-04T14:49:24.893Z,57.20
2023-05-04T14:52:03.157Z,57.00
2023-05-04T14:54:30.110Z,58.30
2023-05-04T14:56:57.063Z,57.20
2023-05-04T14:59:24.024Z,58.10
2023-05-04T15:01:51.047Z,58.00
2023-05-04T15:04:18.151Z,58.90
2023-05-04T15:06:45.059Z,59.20
2023-05-04T15:09:12.132Z,58.60
2023-05-04T15:11:39.043Z,58.40
2023-05-04T15:14:06.238Z,58.30
2023-05-04T15:16:33.511Z,60.50
2023-05-04T15:19:03.399Z,61.20
2023-05-04T15:21:30.340Z,62.00
2023-05-04T15:23:57.337Z,61.80
2023-05-04T15:26:30.712Z,63.50
2023-05-04T15:28:58.437Z,63.80
2023-05-04T15:31:25.517Z,63.90
2023-05-04T15:33:52.525Z,63.30
2023-05-04T15:36:19.500Z,62.20
2023-05-04T15:38:46.397Z,62.00
2023-05-04T15:41:14.415Z,64.60
2023-05-04T15:43:41.463Z,64.60
2023-05-04T15:46:08.419Z,65.40
2023-05-04T15:48:35.371Z,65.40
2023-05-04T15:51:02.317Z,66.40
2023-05-04T15:53:29.250Z,67.30
2023-05-04T15:55:56.167Z,67.50
2023-05-04T15:58:23.142Z,67.20
2023-05-04T16:00:50.193Z,66.90
2023-05-04T16:03:17.234Z,65.80
2023-05-04T16:05:44.396Z,65.90
2023-05-04T16:08:11.623Z,64.70
2023-05-04T16:10:38.562Z,64.60
2023-05-04T16:13:05.665Z,65.00
2023-05-04T16:15:32.842Z,66.40
2023-05-04T16:17:59.978Z,65.40
2023-05-04T16:20:28.354Z,66.10
2023-05-04T16:22:55.446Z,65.50
2023-05-04T16:25:22.572Z,64.60
2023-05-04T16:27:49.569Z,64.70
2023-05-04T16:30:17.358Z,66.00
2023-05-04T16:32:45.137Z,66.70
2023-05-04T16:35:12.184Z,67.00
2023-05-04T16:37:39.372Z,68.20
2023-05-04T16:40:24.561Z,68.60
2023-05-04T16:42:51.536Z,69.40
2023-05-04T16:45:18.558Z,70.10
2023-05-04T16:47:45.868Z,70.60
2023-05-04T16:50:14.340Z,70.70
2023-05-04T16:52:41.501Z,70.60
2023-05-04T16:55:11.827Z,71.30
2023-05-04T16:57:40.353Z,71.90
2023-05-04T17:00:09.269Z,71.80
2023-05-04T17:02:36.581Z,72.20
2023-05-04T17:05:10.351Z,72.40
2023-05-04T17:07:39.853Z,73.00
2023-05-04T17:10:08.291Z,73.10
2023-05-04T17:12:36.127Z,73.80
2023-05-04T17:15:03.956Z,73.60
2023-05-04T17:17:31.088Z,74.00
2023-05-04T17:19:58.277Z,73.80
2023-05-04T17:22:25.514Z,73.70
2023-05-04T17:24:52.551Z,74.30
2023-05-04T17:27:19.607Z,73.60
2023-05-04T17:29:46.692Z,74.10
2023-05-04T17:32:13.703Z,73.80
2023-05-04T17:34:40.647Z,74.10
2023-05-04T17:37:07.575Z,75.10
2023-05-04T17:39:34.601Z,75.20
2023-05-04T17:42:08.902Z,75.50
2023-05-04T17:44:35.861Z,76.20
2023-05-04T17:47:02.777Z,76.80
2023-05-04T17:49:29.733Z,77.20
2023-05-04T17:51:56.948Z,77.90
2023-05-04T17:54:23.900Z,78.30
2023-05-04T17:56:50.823Z,79.10
2023-05-04T17:59:17.925Z,79.80
2023-05-04T18:01:45.296Z,80.30
2023-05-04T18:04:12.254Z,81.00
2023-05-04T18:06:39.312Z,81.30
2023-05-04T18:09:06.696Z,81.70
2023-05-04T18:11:33.777Z,82.40
2023-05-04T18:14:00.698Z,83.10
2023-05-04T18:16:27.724Z,83.50
2023-05-04T18:18:55.591Z,84.80
2023-05-04T18:21:23.539Z,85.60
2023-05-04T18:23:50.437Z,87.00
2023-05-04T18:26:22.854Z,87.70
2023-05-04T18:28:50.018Z,88.60
2023-05-04T18:31:17.615Z,89.60
2023-05-04T18:33:44.953Z,90.50
2023-05-04T18:36:12.279Z,91.00
2023-05-04T18:38:39.578Z,92.00
2023-05-04T18:41:06.614Z,92.80
2023-05-04T18:43:33.639Z,93.80
2023-05-04T18:46:08.013Z,95.00
2023-05-04T18:48:35.330Z,96.20
2023-05-04T18:51:02.957Z,97.20
2023-05-04T18:53:30.125Z,98.30
2023-05-04T18:56:08.116Z,99.40
2023-05-04T18:58:38.683Z,99.90
2023-05-04T19:01:08.674Z,99.90
2023-05-04T19:03:35.736Z,99.90
2023-05-04T19:06:02.763Z,99.90
2023-05-04T19:08:29.704Z,99.90
2023-05-04T19:10:59.503Z,99.90
2023-05-04T19:13:26.550Z,99.90
2023-05-04T19:15:53.673Z,99.90
2023-05-04T19:18:21.008Z,99.90
2023-05-04T19:20:49.244Z,99.90
2023-05-04T19:23:16.228Z,99.90
2023-05-04T19:25:43.336Z,99.90
2023-05-04T19:28:10.336Z,99.90
2023-05-04T19:30:37.886Z,99.90
2023-05-04T19:33:06.749Z,99.90
2023-05-04T19:35:33.792Z,99.90
2023-05-04T19:38:01.801Z,99.90
2023-05-04T19:40:29.169Z,99.90
2023-05-04T19:42:56.427Z,99.90
2023-05-04T19:45:24.161Z,99.90
2023-05-04T19:47:52.736Z,99.90
2023-05-04T19:50:19.848Z,99.90
2023-05-04T19:52:46.957Z,99.90
2023-05-04T19:55:13.943Z,99.90
2023-05-04T19:57:40.879Z,99.90
2023-05-04T20:00:10.159Z,99.90
2023-05-04T20:02:38.452Z,99.90
2023-05-04T20:05:06.503Z,99.90
2023-05-04T20:07:33.460Z,99.90
2023-05-04T20:10:00.446Z,99.90
2023-05-04T20:12:27.511Z,99.90
2023-05-04T20:14:54.473Z,99.90
2023-05-04T20:17:21.598Z,99.90
2023-05-04T20:19:48.679Z,99.90
2023-05-04T20:22:16.448Z,99.90
2023-05-04T20:24:43.505Z,99.90
2023-05-04T20:27:10.531Z,99.90
2023-05-04T20:29:37.480Z,99.90
2023-05-04T20:32:07.132Z,99.90
2023-05-04T20:34:34.308Z,99.90
2023-05-04T20:37:01.272Z,99.90
2023-05-04T20:39:28.259Z,99.90
2023-05-04T20:41:55.280Z,99.90
2023-05-04T20:44:22.423Z,99.90
2023-05-04T20:46:49.433Z,99.90
2023-05-04T20:49:16.560Z,99.90
2023-05-04T20:51:43.489Z,99.90
2023-05-04T20:54:10.638Z,99.90
2023-05-04T20:56:38.238Z,99.90
2023-05-04T20:59:05.609Z,99.90
2023-05-04T21:01:33.536Z,99.90
2023-05-04T21:04:00.580Z,99.90
2023-05-04T21:06:27.585Z,99.90
2023-05-04T21:08:54.552Z,99.90
2023-05-04T21:11:21.474Z,99.90
2023-05-04T21:13:48.378Z,99.90
2023-05-04T21:16:15.323Z,99.90
2023-05-04T21:18:44.780Z,99.90
2023-05-04T21:21:11.913Z,99.90
2023-05-04T21:23:39.377Z,99.90
2023-05-04T21:26:06.430Z,99.90
2023-05-04T21:28:33.649Z,99.90
2023-05-04T21:31:00.723Z,99.90
2023-05-04T21:33:27.821Z,99.90
2023-05-04T21:35:54.835Z,99.90
2023-05-04T21:38:22.424Z,99.90
2023-05-04T21:40:49.576Z,99.90
2023-05-04T21:43:25.026Z,99.90
2023-05-04T21:45:52.112Z,99.90
2023-05-04T21:48:19.122Z,99.90
2023-05-04T21:50:46.729Z,99.90
2023-05-04T21:53:13.664Z,99.90
2023-05-04T21:55:40.613Z,99.90
2023-05-04T21:58:07.571Z,99.90
2023-05-04T22:00:34.532Z,99.90
2023-05-04T22:03:01.544Z,99.90
2023-05-04T22:05:28.563Z,99.90
2023-05-04T22:07:55.531Z,99.90
2023-05-04T22:10:22.595Z,99.90
2023-05-04T22:12:49.584Z,99.90
2023-05-04T22:15:16.574Z,99.90
2023-05-04T22:17:43.867Z,99.90
2023-05-04T22:20:11.647Z,99.90
2023-05-04T22:22:38.598Z,99.90
2023-05-04T22:25:06.095Z,99.90
2023-05-04T22:27:33.052Z,99.90
2023-05-04T22:30:00.084Z,99.90
2023-05-04T22:32:27.085Z,99.90
2023-05-04T22:34:54.071Z,99.90
2023-05-04T22:37:22.422Z,99.90
2023-05-04T22:39:49.342Z,99.90
2023-05-04T22:42:16.240Z,99.90
2023-05-04T22:44:43.194Z,99.90
2023-05-04T22:47:10.101Z,99.90
2023-05-04T22:49:53.202Z,99.90
2023-05-04T22:52:20.299Z,99.90
2023-05-04T22:54:47.343Z,99.90
2023-05-04T22:57:14.377Z,99.90
2023-05-04T22:59:41.766Z,99.90
2023-05-04T23:02:08.828Z,99.90
2023-05-04T23:04:35.793Z,99.90
2023-05-04T23:07:02.813Z,99.90
2023-05-04T23:09:29.751Z,99.90
2023-05-04T23:11:56.724Z,99.90
2023-05-04T23:14:23.651Z,99.90
2023-05-04T23:16:50.637Z,99.90
2023-05-04T23:19:17.548Z,99.90
2023-05-04T23:21:44.516Z,99.90
2023-05-04T23:24:11.520Z,99.90
2023-05-04T23:26:38.462Z,99.90
2023-05-04T23:29:05.538Z,99.90
2023-05-04T23:31:32.582Z,99.90
2023-05-04T23:33:59.814Z,99.90
2023-05-04T23:36:27.745Z,99.90
2023-05-04T23:38:54.680Z,99.90
2023-05-04T23:41:21.671Z,99.90
2023-05-04T23:43:48.745Z,99.90
2023-05-04T23:46:15.821Z,99.90
2023-05-04T23:48:42.844Z,99.90
2023-05-04T23:51:09.852Z,99.90
2023-05-04T23:53:37.194Z,99.90
2023-05-04T23:56:05.333Z,99.90
2023-05-04T23:58:33.570Z,99.90
